createdAt,value
2019-04-14T00:00:46.864Z,99995.77
2019-04-14T00:03:23.749Z,100000.52
2019-04-14T00:05:58.276Z,99996.44
2019-04-14T00:08:28.368Z,99999.80
2019-04-14T00:10:59.306Z,99998.80
2019-04-14T00:13:28.688Z,99996.29
2019-04-14T00:15:58.855Z,99996.44
2019-04-14T00:18:29.353Z,99995.00
2019-04-14T00:20:59.771Z,99989.77
2019-04-14T00:23:30.390Z,99985.84
2019-04-14T00:26:25.437Z,99985.76
2019-04-14T00:28:55.625Z,99988.80
2019-04-14T00:31:26.173Z,99977.36
2019-04-14T00:33:58.489Z,99979.03
2019-04-14T00:36:35.242Z,99975.17
2019-04-14T00:39:07.669Z,99974.23
2019-04-14T00:41:44.850Z,99971.08
2019-04-14T00:44:14.661Z,99975.38
2019-04-14T00:46:58.178Z,99975.92
2019-04-14T00:49:28.908Z,99976.81
2019-04-14T00:51:59.323Z,99977.89
2019-04-14T00:54:28.627Z,99974.11
2019-04-14T00:56:58.473Z,99969.70
2019-04-14T00:59:28.957Z,99970.75
2019-04-14T01:01:59.166Z,99971.96
2019-04-14T01:04:29.467Z,99974.18
2019-04-14T01:07:00.064Z,99972.42
2019-04-14T01:09:30.436Z,99973.64
2019-04-14T01:12:01.812Z,99980.40
2019-04-14T01:14:32.022Z,99977.82
2019-04-14T01:17:02.639Z,99983.05
2019-04-14T01:19:33.095Z,99983.80
2019-04-14T01:22:03.202Z,99988.05
2019-04-14T01:24:34.483Z,99983.80
2019-04-14T01:27:04.013Z,99979.11
2019-04-14T01:29:34.153Z,99983.65
2019-04-14T01:32:04.557Z,99984.11
2019-04-14T01:34:34.752Z,99975.67
2019-04-14T01:37:05.162Z,99974.86
2019-04-14T01:39:35.055Z,99976.22
2019-04-14T01:42:04.943Z,99974.25
2019-04-14T01:44:35.175Z,99973.79
2019-04-14T01:47:05.302Z,99976.44
2019-04-14T01:49:35.462Z,99972.65
2019-04-14T01:52:06.670Z,99969.17
2019-04-14T01:54:38.563Z,99969.53
2019-04-14T01:57:19.971Z,99968.56
2019-04-14T01:59:50.327Z,99964.63
2019-04-14T02:02:22.626Z,99961.66
2019-04-14T02:04:52.903Z,99965.16
2019-04-14T02:07:25.636Z,99965.16
2019-04-14T02:09:55.335Z,99966.73
2019-04-14T02:12:25.634Z,99963.95
2019-04-14T02:14:56.198Z,99962.20
2019-04-14T02:17:26.355Z,99967.73
2019-04-14T02:19:56.758Z,99964.63
2019-04-14T02:22:26.664Z,99963.65
2019-04-14T02:24:57.083Z,99966.15
2019-04-14T02:27:27.416Z,99966.51
2019-04-14T02:29:58.114Z,99962.80
2019-04-14T02:32:57.484Z,99953.49
2019-04-14T02:35:28.389Z,99952.12
2019-04-14T02:38:03.433Z,99945.97
2019-04-14T02:40:41.114Z,99946.83
2019-04-14T02:43:04.337Z,99945.14
2019-04-14T02:45:35.154Z,99942.18
2019-04-14T02:48:20.444Z,99939.99
2019-04-14T02:50:30.331Z,99938.47
2019-04-14T02:53:09.070Z,99942.88
2019-04-14T02:55:42.210Z,99943.77
2019-04-14T02:58:10.208Z,99942.41
2019-04-14T03:03:10.222Z,99939.47
2019-04-14T03:05:44.422Z,99937.05
2019-04-14T03:08:08.294Z,99936.73
2019-04-14T03:10:40.440Z,99944.84
2019-04-14T03:13:15.070Z,99933.54
2019-04-14T03:15:53.776Z,99934.91
2019-04-14T03:21:03.594Z,99930.44
2019-04-14T03:23:46.360Z,99929.69
2019-04-14T03:26:04.793Z,99928.41
2019-04-14T03:31:37.505Z,99936.34
2019-04-14T03:37:21.965Z,99937.05
2019-04-14T03:41:27.370Z,99932.27
2019-04-14T03:43:46.036Z,99936.56
2019-04-14T03:46:25.461Z,99931.80
2019-04-14T03:51:34.726Z,99931.05
2019-04-14T03:53:53.145Z,99933.16
2019-04-14T03:56:07.709Z,99929.52
2019-04-14T03:58:35.720Z,99938.39
2019-04-14T04:01:06.177Z,99929.06
2019-04-14T04:03:36.751Z,99929.84
2019-04-14T04:06:07.465Z,99926.41
2019-04-14T04:08:37.704Z,99931.56
2019-04-14T04:11:06.847Z,99933.55
2019-04-14T04:13:36.614Z,99933.63
2019-04-14T04:16:13.822Z,99930.27
2019-04-14T04:18:51.255Z,99931.64
2019-04-14T04:21:18.745Z,99934.53
2019-04-14T04:23:53.299Z,99932.70
2019-04-14T04:26:40.646Z,99936.95
2019-04-14T04:29:17.911Z,99932.48
2019-04-14T04:31:58.889Z,99944.14
2019-04-14T04:34:33.797Z,99940.89
2019-04-14T04:37:08.285Z,99941.64
2019-04-14T04:39:43.214Z,99949.38
2019-04-14T04:42:13.319Z,99951.88
2019-04-14T04:44:42.667Z,99945.08
2019-04-14T04:47:12.370Z,99953.63
2019-04-14T04:49:42.668Z,99949.22
2019-04-14T04:52:13.982Z,99956.52
2019-04-14T04:54:42.943Z,99953.70
2019-04-14T04:57:13.186Z,99948.33
2019-04-14T04:59:43.058Z,99946.50
2019-04-14T05:02:13.454Z,99953.17
2019-04-14T05:04:43.827Z,99952.48
2019-04-14T05:07:14.382Z,99958.57
2019-04-14T05:09:49.100Z,99953.56
2019-04-14T05:12:19.867Z,99957.12
2019-04-14T05:15:03.623Z,99960.45
2019-04-14T05:17:40.950Z,99960.23
2019-04-14T05:20:11.387Z,99961.80
2019-04-14T05:22:41.769Z,99960.08
2019-04-14T05:25:12.369Z,99958.64
2019-04-14T05:27:41.645Z,99958.93
2019-04-14T05:30:13.196Z,99961.43
2019-04-14T05:32:43.443Z,99958.55
2019-04-14T05:35:14.040Z,99960.00
2019-04-14T05:37:44.348Z,99964.62
2019-04-14T05:40:14.566Z,99964.09
2019-04-14T05:42:45.020Z,99974.02
2019-04-14T05:45:15.460Z,99971.21
2019-04-14T05:47:45.740Z,99967.27
2019-04-14T05:50:15.867Z,99966.81
2019-04-14T05:52:45.027Z,99967.12
2019-04-14T05:55:14.205Z,99961.58
2019-04-14T05:57:43.811Z,99963.19
2019-04-14T06:00:16.650Z,99966.28
2019-04-14T06:02:46.716Z,99968.00
2019-04-14T06:05:16.588Z,99963.16
2019-04-14T06:07:45.895Z,99962.80
2019-04-14T06:10:15.175Z,99967.10
2019-04-14T06:12:44.458Z,99964.75
2019-04-14T06:15:14.086Z,99964.52
2019-04-14T06:17:43.273Z,99972.88
2019-04-14T06:20:12.834Z,99964.52
2019-04-14T06:22:45.637Z,99971.67
2019-04-14T06:25:14.843Z,99970.92
2019-04-14T06:27:44.322Z,99972.80
2019-04-14T06:30:30.585Z,99974.84
2019-04-14T06:33:02.656Z,99972.65
2019-04-14T06:35:39.637Z,99970.89
2019-04-14T06:38:10.437Z,99971.87
2019-04-14T06:40:41.214Z,99976.95
2019-04-14T06:43:11.688Z,99979.29
2019-04-14T06:45:41.061Z,99979.76
2019-04-14T06:48:10.189Z,99980.12
2019-04-14T06:50:39.321Z,99976.09
2019-04-14T06:53:08.538Z,99982.30
2019-04-14T06:55:37.768Z,99983.97
2019-04-14T06:58:06.958Z,99984.30
2019-04-14T07:00:36.201Z,99980.84
2019-04-14T07:03:05.603Z,99977.63
2019-04-14T07:05:34.861Z,99975.67
2019-04-14T07:08:04.104Z,99975.48
2019-04-14T07:10:33.242Z,99986.72
2019-04-14T07:13:02.480Z,99986.84
2019-04-14T07:15:31.705Z,99990.89
2019-04-14T07:18:00.841Z,99995.11
2019-04-14T07:20:29.970Z,99994.97
2019-04-14T07:23:00.785Z,99992.15
2019-04-14T07:25:29.983Z,99989.97
2019-04-14T07:27:59.965Z,99988.42
2019-04-14T07:30:43.215Z,99991.31
2019-04-14T07:33:30.821Z,99984.70
2019-04-14T07:36:17.800Z,99991.38
2019-04-14T07:38:50.081Z,99992.95
2019-04-14T07:41:20.935Z,99992.06
2019-04-14T07:43:57.128Z,99990.60
2019-04-14T07:46:41.412Z,99997.28
2019-04-14T07:49:28.430Z,99995.88
2019-04-14T07:52:08.204Z,99999.44
2019-04-14T07:54:41.413Z,100002.21
2019-04-14T07:57:30.502Z,100001.03
2019-04-14T08:00:01.324Z,99994.03
2019-04-14T08:02:37.917Z,99997.81
2019-04-14T08:05:09.112Z,99999.91
2019-04-14T08:07:39.701Z,100001.44
2019-04-14T08:10:10.005Z,99997.38
2019-04-14T08:12:39.182Z,99999.67
2019-04-14T08:15:08.505Z,100000.92
2019-04-14T08:17:37.727Z,99996.69
2019-04-14T08:20:07.870Z,100001.12
2019-04-14T08:22:37.032Z,99989.00
2019-04-14T08:25:07.241Z,99995.00
2019-04-14T08:27:36.541Z,99997.47
2019-04-14T08:30:09.051Z,99989.50
2019-04-14T08:32:38.250Z,99986.09
2019-04-14T08:35:07.905Z,99990.20
2019-04-14T08:37:37.265Z,99991.31
2019-04-14T08:40:07.568Z,99987.16
2019-04-14T08:42:50.552Z,99987.16
2019-04-14T08:45:33.678Z,99982.95
2019-04-14T08:48:10.503Z,99986.75
2019-04-14T08:50:44.194Z,99990.98
2019-04-14T08:53:20.836Z,99986.66
2019-04-14T08:55:51.635Z,99982.88
2019-04-14T08:58:28.411Z,99982.20
2019-04-14T09:01:02.031Z,99977.50
2019-04-14T09:03:38.603Z,99974.27
2019-04-14T09:06:09.457Z,99981.51
2019-04-14T09:08:40.281Z,99981.72
2019-04-14T09:11:11.161Z,99979.84
2019-04-14T09:13:43.447Z,99979.40
2019-04-14T09:16:12.795Z,99971.77
2019-04-14T09:18:43.522Z,99974.42
2019-04-14T09:21:12.740Z,99969.81
2019-04-14T09:23:46.074Z,99969.41
2019-04-14T09:26:15.318Z,99964.31
2019-04-14T09:28:46.478Z,99963.09
2019-04-14T09:31:16.929Z,99967.87
2019-04-14T09:33:47.912Z,99968.63
2019-04-14T09:36:17.153Z,99971.59
2019-04-14T09:38:46.138Z,99975.55
2019-04-14T09:41:16.974Z,99970.64
2019-04-14T09:43:46.178Z,99970.52
2019-04-14T09:46:15.417Z,99972.16
2019-04-14T09:48:46.327Z,99972.61
2019-04-14T09:51:16.931Z,99967.04
2019-04-14T09:53:49.583Z,99967.23
2019-04-14T09:56:18.852Z,99966.42
2019-04-14T09:58:50.684Z,99967.11
2019-04-14T10:01:19.922Z,99969.61
2019-04-14T10:03:50.642Z,99969.34
2019-04-14T10:06:22.109Z,99966.77
2019-04-14T10:08:51.384Z,99959.66
2019-04-14T10:11:20.707Z,99965.88
2019-04-14T10:13:51.293Z,99964.39
2019-04-14T10:16:20.536Z,99962.06
2019-04-14T10:18:51.029Z,99972.81
2019-04-14T10:21:20.248Z,99964.81
2019-04-14T10:23:49.399Z,99963.56
2019-04-14T10:26:18.653Z,99956.55
2019-04-14T10:28:50.639Z,99964.70
2019-04-14T10:31:18.852Z,99965.25
2019-04-14T10:33:48.535Z,99954.77
2019-04-14T10:36:17.766Z,99961.39
2019-04-14T10:38:47.074Z,99958.56
2019-04-14T10:41:16.356Z,99959.05
2019-04-14T10:43:45.568Z,99961.50
2019-04-14T10:46:14.791Z,99957.30
2019-04-14T10:48:44.111Z,99952.54
2019-04-14T10:51:29.143Z,99958.37
2019-04-14T10:53:50.146Z,99954.53
2019-04-14T10:56:21.342Z,99953.04
2019-04-14T10:58:50.647Z,99950.40
2019-04-14T11:01:19.978Z,99953.25
2019-04-14T11:03:49.317Z,99949.11
2019-04-14T11:06:26.075Z,99948.52
2019-04-14T11:08:55.291Z,99949.12
2019-04-14T11:11:24.611Z,99950.80
2019-04-14T11:13:53.777Z,99950.34
2019-04-14T11:16:23.099Z,99948.54
2019-04-14T11:18:52.477Z,99951.61
2019-04-14T11:21:21.810Z,99945.60
2019-04-14T11:23:51.068Z,99950.91
2019-04-14T11:26:20.358Z,99946.66
2019-04-14T11:28:49.577Z,99942.05
2019-04-14T11:31:20.482Z,99947.35
2019-04-14T11:33:54.151Z,99947.97
2019-04-14T11:36:27.726Z,99946.18
2019-04-14T11:39:01.539Z,99944.66
2019-04-14T11:41:30.865Z,99945.97
2019-04-14T11:44:00.148Z,99944.51
2019-04-14T11:46:29.488Z,99949.63
2019-04-14T11:48:59.165Z,99952.00
2019-04-14T11:51:28.662Z,99950.90
2019-04-14T11:53:58.041Z,99946.54
2019-04-14T11:56:27.326Z,99949.49
2019-04-14T11:58:56.650Z,99947.62
2019-04-14T12:01:39.292Z,99944.66
2019-04-14T12:04:10.177Z,99944.05
2019-04-14T12:06:57.028Z,99942.59
2019-04-14T12:09:33.530Z,99933.77
2019-04-14T12:12:03.349Z,99939.11
2019-04-14T12:14:32.753Z,99928.84
2019-04-14T12:17:02.327Z,99930.03
2019-04-14T12:19:31.455Z,99932.78
2019-04-14T12:22:08.056Z,99930.50
2019-04-14T12:24:31.571Z,99930.89
2019-04-14T12:27:00.858Z,99926.81
2019-04-14T12:29:30.449Z,99923.72
2019-04-14T12:32:01.792Z,99923.72
2019-04-14T12:34:31.259Z,99920.80
2019-04-14T12:37:00.451Z,99923.58
2019-04-14T12:39:29.893Z,99912.69
2019-04-14T12:42:00.929Z,99914.39
2019-04-14T12:44:31.745Z,99909.30
2019-04-14T12:47:20.562Z,99908.86
2019-04-14T12:49:51.417Z,99908.28
2019-04-14T12:52:24.915Z,99907.61
2019-04-14T12:54:54.097Z,99907.70
2019-04-14T12:57:25.222Z,99909.55
2019-04-14T12:59:54.523Z,99907.45
2019-04-14T13:02:25.530Z,99901.95
2019-04-14T13:04:55.472Z,99902.47
2019-04-14T13:07:24.943Z,99903.28
2019-04-14T13:09:54.339Z,99909.19
2019-04-14T13:12:23.599Z,99906.64
2019-04-14T13:14:52.887Z,99903.80
2019-04-14T13:17:23.666Z,99901.98
2019-04-14T13:19:52.889Z,99901.69
2019-04-14T13:22:33.302Z,99898.50
2019-04-14T13:24:53.095Z,99888.70
2019-04-14T13:27:23.363Z,99899.75
2019-04-14T13:29:52.712Z,99897.51
2019-04-14T13:32:22.052Z,99891.56
2019-04-14T13:34:51.270Z,99891.68
2019-04-14T13:37:20.568Z,99892.98
2019-04-14T13:39:49.837Z,99894.61
2019-04-14T13:42:19.030Z,99894.72
2019-04-14T13:44:48.325Z,99892.48
2019-04-14T13:47:17.675Z,99887.27
2019-04-14T13:49:46.920Z,99889.07
2019-04-14T13:52:16.084Z,99884.09
2019-04-14T13:54:45.371Z,99884.67
2019-04-14T13:57:14.606Z,99886.16
2019-04-14T13:59:43.917Z,99888.89
2019-04-14T14:02:13.237Z,99888.08
2019-04-14T14:04:42.712Z,99891.81
2019-04-14T14:07:12.005Z,99890.61
2019-04-14T14:09:41.487Z,99886.53
2019-04-14T14:12:30.679Z,99877.99
2019-04-14T14:15:07.331Z,99885.65
2019-04-14T14:17:40.937Z,99883.80
2019-04-14T14:20:11.967Z,99881.42
2019-04-14T14:22:42.934Z,99880.60
2019-04-14T14:25:19.359Z,99885.09
2019-04-14T14:27:48.556Z,99877.34
2019-04-14T14:30:19.416Z,99883.80
2019-04-14T14:32:48.664Z,99879.39
2019-04-14T14:35:17.908Z,99876.10
2019-04-14T14:37:47.135Z,99878.09
2019-04-14T14:40:16.808Z,99878.22
2019-04-14T14:42:46.123Z,99877.21
2019-04-14T14:45:19.529Z,99874.73
2019-04-14T14:48:06.426Z,99877.83
2019-04-14T14:50:37.292Z,99876.98
2019-04-14T14:53:12.311Z,99875.92
2019-04-14T14:55:37.635Z,99871.20
2019-04-14T14:58:06.895Z,99868.39
2019-04-14T15:00:36.243Z,99875.97
2019-04-14T15:03:05.680Z,99881.45
2019-04-14T15:05:34.855Z,99874.81
2019-04-14T15:08:04.250Z,99876.36
2019-04-14T15:10:33.601Z,99879.90
2019-04-14T15:13:02.834Z,99873.99
2019-04-14T15:15:32.060Z,99874.56
2019-04-14T15:18:01.374Z,99881.20
2019-04-14T15:20:30.692Z,99885.22
2019-04-14T15:22:59.905Z,99885.45
2019-04-14T15:25:29.288Z,99883.80
2019-04-14T15:27:58.526Z,99883.35
2019-04-14T15:30:27.735Z,99887.35
2019-04-14T15:32:56.989Z,99879.30
2019-04-14T15:35:26.277Z,99887.14
2019-04-14T15:37:55.623Z,99882.03
2019-04-14T15:40:24.887Z,99880.97
2019-04-14T15:42:54.101Z,99881.45
2019-04-14T15:45:24.178Z,99880.38
2019-04-14T15:47:53.467Z,99886.42
2019-04-14T15:50:22.756Z,99882.62
2019-04-14T15:52:51.977Z,99884.53
2019-04-14T15:55:21.311Z,99882.27
2019-04-14T15:57:54.894Z,99880.14
2019-04-14T16:00:43.365Z,99876.61
2019-04-14T16:03:22.844Z,99872.70
2019-04-14T16:05:56.611Z,99880.39
2019-04-14T16:08:30.350Z,99880.61
2019-04-14T16:11:04.012Z,99877.55
2019-04-14T16:13:51.045Z,99877.77
2019-04-14T16:16:24.539Z,99881.10
2019-04-14T16:18:58.205Z,99874.59
2019-04-14T16:21:27.364Z,99875.98
2019-04-14T16:23:56.632Z,99877.77
2019-04-14T16:26:27.513Z,99878.73
2019-04-14T16:29:02.612Z,99883.12
2019-04-14T16:31:50.014Z,99873.64
2019-04-14T16:34:29.876Z,99875.30
2019-04-14T16:36:59.209Z,99872.22
2019-04-14T16:39:28.440Z,99876.58
2019-04-14T16:41:57.741Z,99876.34
2019-04-14T16:44:27.499Z,99881.55
2019-04-14T16:46:56.827Z,99884.53
2019-04-14T16:49:26.044Z,99878.97
2019-04-14T16:51:56.975Z,99882.05
2019-04-14T16:54:39.816Z,99877.77
2019-04-14T16:57:10.711Z,99888.53
2019-04-14T16:59:40.024Z,99888.55
2019-04-14T17:02:10.982Z,99889.02
2019-04-14T17:04:40.371Z,99891.23
2019-04-14T17:07:09.677Z,99896.56
2019-04-14T17:09:39.015Z,99888.63
2019-04-14T17:12:08.349Z,99899.85
2019-04-14T17:14:39.237Z,99894.97
2019-04-14T17:17:10.104Z,99900.97
2019-04-14T17:19:40.981Z,99898.48
2019-04-14T17:22:14.415Z,99903.20
2019-04-14T17:25:01.499Z,99898.33
2019-04-14T17:27:32.360Z,99903.22
2019-04-14T17:30:03.230Z,99902.34
2019-04-14T17:32:34.132Z,99903.17
2019-04-14T17:35:20.035Z,99904.50
2019-04-14T17:37:50.975Z,99910.67
2019-04-14T17:40:27.843Z,99909.23
2019-04-14T17:43:14.977Z,99916.42
2019-04-14T17:45:54.638Z,99919.69
2019-04-14T17:48:41.816Z,99923.08
2019-04-14T17:51:24.500Z,99932.75
2019-04-14T17:54:04.209Z,99933.28
2019-04-14T17:56:37.604Z,99939.30
2019-04-14T17:59:20.246Z,99939.26
2019-04-14T18:01:53.920Z,99933.80
2019-04-14T18:04:36.941Z,99944.48
2019-04-14T18:07:07.773Z,99939.02
2019-04-14T18:09:38.697Z,99942.27
2019-04-14T18:12:09.623Z,99952.51
2019-04-14T18:14:52.420Z,99950.50
2019-04-14T18:17:29.246Z,99954.72
2019-04-14T18:20:00.163Z,99956.34
2019-04-14T18:22:29.432Z,99960.61
2019-04-14T18:24:58.744Z,99964.69
2019-04-14T18:27:28.034Z,99963.00
2019-04-14T18:30:01.730Z,99961.80
2019-04-14T18:32:35.198Z,99964.41
2019-04-14T18:35:06.787Z,99971.37
2019-04-14T18:37:53.707Z,99971.37
2019-04-14T18:40:36.470Z,99974.31
2019-04-14T18:43:13.382Z,99973.23
2019-04-14T18:45:44.254Z,99978.91
2019-04-14T18:48:31.098Z,99976.41
2019-04-14T18:51:04.450Z,99983.17
2019-04-14T18:53:43.962Z,99990.22
2019-04-14T18:56:30.819Z,99998.32
2019-04-14T18:59:01.747Z,99999.03
2019-04-14T19:01:35.187Z,100000.00
2019-04-14T19:04:04.450Z,99999.59
2019-04-14T19:06:33.726Z,100007.68
2019-04-14T19:09:02.951Z,100009.20
2019-04-14T19:11:33.724Z,100013.09
2019-04-14T19:14:04.120Z,100009.88
2019-04-14T19:16:39.631Z,100007.79
2019-04-14T19:19:10.205Z,100011.88
2019-04-14T19:21:39.503Z,100009.11
2019-04-14T19:24:08.759Z,100011.42
2019-04-14T19:26:38.018Z,100007.64
2019-04-14T19:29:07.183Z,100008.78
2019-04-14T19:31:36.463Z,100010.72
2019-04-14T19:34:05.914Z,100010.82
2019-04-14T19:36:35.149Z,100005.11
2019-04-14T19:39:08.223Z,100005.94
2019-04-14T19:41:37.495Z,100008.53
2019-04-14T19:44:06.801Z,100008.72
2019-04-14T19:46:36.029Z,100018.75
2019-04-14T19:49:05.422Z,100017.99
2019-04-14T19:51:34.604Z,100016.89
2019-04-14T19:54:03.907Z,100018.76
2019-04-14T19:56:33.144Z,100013.85
2019-04-14T19:59:02.593Z,100018.09
2019-04-14T20:01:31.831Z,100011.45
2019-04-14T20:04:01.117Z,100010.36
2019-04-14T20:06:30.415Z,100015.16
2019-04-14T20:08:59.753Z,100012.09
2019-04-14T20:11:29.118Z,100015.78
2019-04-14T20:13:58.411Z,100013.67
2019-04-14T20:16:44.437Z,100015.98
2019-04-14T20:19:15.322Z,100017.18
2019-04-14T20:21:52.239Z,100016.45
2019-04-14T20:24:29.485Z,100014.88
2019-04-14T20:27:00.530Z,100014.63
2019-04-14T20:29:37.136Z,100018.14
2019-04-14T20:32:08.263Z,100011.76
2019-04-14T20:34:37.699Z,100015.56
2019-04-14T20:37:07.567Z,100016.33
2019-04-14T20:39:37.018Z,100016.52
2019-04-14T20:42:06.913Z,100021.60
2019-04-14T20:44:36.524Z,100021.06
2019-04-14T20:47:07.425Z,100020.05
2019-04-14T20:49:36.863Z,100019.67
2019-04-14T20:52:06.091Z,100023.84
2019-04-14T20:54:35.445Z,100029.41
2019-04-14T20:57:04.840Z,100021.25
2019-04-14T20:59:33.970Z,100025.99
2019-04-14T21:02:04.927Z,100023.66
2019-04-14T21:04:38.450Z,100026.16
2019-04-14T21:07:25.562Z,100021.91
2019-04-14T21:09:56.341Z,100022.20
2019-04-14T21:12:39.167Z,100023.97
2019-04-14T21:15:26.348Z,100025.89
2019-04-14T21:18:06.188Z,100019.98
2019-04-14T21:20:46.395Z,100016.83
2019-04-14T21:23:17.240Z,100017.39
2019-04-14T21:25:59.583Z,100018.78
2019-04-14T21:28:23.294Z,100017.39
2019-04-14T21:30:59.846Z,100012.69
2019-04-14T21:33:36.390Z,100009.72
2019-04-14T21:36:22.105Z,100011.11
2019-04-14T21:39:11.085Z,100002.52
2019-04-14T21:41:41.957Z,99995.84
2019-04-14T21:44:11.180Z,100005.30
2019-04-14T21:46:40.370Z,100008.06
2019-04-14T21:49:09.671Z,100009.26
2019-04-14T21:51:52.237Z,100014.91
2019-04-14T21:54:21.883Z,100014.63
2019-04-14T21:57:08.919Z,100010.27
2019-04-14T21:59:55.809Z,100014.15
2019-04-14T22:02:42.909Z,100013.95
2019-04-14T22:05:16.335Z,100012.84
2019-04-14T22:07:59.317Z,100012.59
2019-04-14T22:10:30.358Z,100011.73
2019-04-14T22:12:59.604Z,100020.35
2019-04-14T22:15:28.853Z,100017.77
2019-04-14T22:17:58.269Z,100020.44
2019-04-14T22:20:27.495Z,100025.97
2019-04-14T22:22:57.160Z,100029.85
2019-04-14T22:25:26.609Z,100021.62
2019-04-14T22:27:56.141Z,100024.22
2019-04-14T22:30:25.523Z,100022.55
2019-04-14T22:32:54.691Z,100026.05
2019-04-14T22:35:23.984Z,100023.98
2019-04-14T22:37:55.151Z,100023.64
2019-04-14T22:40:24.390Z,100022.69
2019-04-14T22:42:53.671Z,100024.08
2019-04-14T22:45:22.990Z,100024.08
2019-04-14T22:47:52.144Z,100026.22
2019-04-14T22:50:21.455Z,100027.05
2019-04-14T22:52:50.702Z,100027.78
2019-04-14T22:55:19.939Z,100030.36
2019-04-14T22:57:51.242Z,100031.60
2019-04-14T23:00:26.889Z,100028.63
2019-04-14T23:02:57.779Z,100027.88
2019-04-14T23:05:44.646Z,100032.41
2019-04-14T23:08:37.851Z,100030.20
2019-04-14T23:11:24.708Z,100025.64
2019-04-14T23:14:04.665Z,100028.88
2019-04-14T23:16:50.292Z,100036.64
2019-04-14T23:19:21.241Z,100034.06
2019-04-14T23:22:01.122Z,100038.41
2019-04-14T23:24:31.896Z,100034.97
2019-04-14T23:27:01.119Z,100030.73
2019-04-14T23:29:30.474Z,100025.36
2019-04-14T23:32:00.195Z,100029.80
2019-04-14T23:34:29.457Z,100031.45
2019-04-14T23:36:58.650Z,100030.53
2019-04-14T23:39:27.858Z,100033.95
2019-04-14T23:41:57.142Z,100039.97
2019-04-14T23:44:26.255Z,100033.03
2019-04-14T23:46:55.428Z,100038.85
2019-04-14T23:49:24.658Z,100036.17
2019-04-14T23:51:53.862Z,100032.03
2019-04-14T23:54:23.070Z,100039.03
2019-04-14T23:57:04.438Z,100042.18
2019-04-14T23:59:23.113Z,100043.47
